• Join FlightAware (Why Join?)
  • Login
  • US Flag 
08:01AM EDT


 

Airport Tracker/Info


-or-


 

Live Flight TrackerFlight Track Log ✈ UAL4679 ✈ 16-May-2014 ✈ KEWR - KJAX

Flight Track Log - Related Links

Times and Time Zones

All times are in EDT time to prevent confusion due to time zone crossing. See the UAL4679 flight status page for this flight to view local times or setup timezone preferences in your user account.

Time Position Orientation Groundspeed Altitude Reporting Facility
EDT Latitude Longitude Course Direction KTS MPH feet Rate Location/Type
11:28AM 40.6667 -74.1833 180° South 143 165 1,700  Level New York TRACON
11:29AM 40.6167 -74.2000 194° South 199 229 3,100 1,800 Climbing New York TRACON
11:30AM 40.5667 -74.2500 217° Southwest 235 270 5,400 840 Climbing New York TRACON
11:32AM 40.2082 -74.1806 194° South  Level FlightAware Approximate
11:32AM 40.4258 -74.2172 170° South 230 265 6,000  Level New York Center
11:33AM 40.1089 -74.2167 180° South  Level FlightAware Approximate
11:33AM 40.3683 -74.1897 160° South 230 265 6,200  Level New York Center
11:34AM 40.3067 -74.1622 161° South 230 265 8,900 2,280 Climbing New York Center
11:35AM 40.2436 -74.1836 195° South 226 260 10,800 1,500 Climbing New York Center
11:37AM 40.1325 -74.2131 191° South 260 299 12,800 1,500 Climbing Washington Center
11:38AM 40.0517 -74.2389 194° South 284 327 14,700 1,680 Climbing Washington Center
11:39AM 39.9731 -74.2839 204° Southwest 301 346 16,200 1,380 Climbing Washington Center
11:40AM 39.9008 -74.3528 216° Southwest 314 361 17,500 1,200 Climbing Washington Center
11:41AM 39.8267 -74.4217 216° Southwest 331 381 18,700 1,320 Climbing Washington Center
11:42AM 39.7628 -74.5036 225° Southwest 336 387 20,200 1,560 Climbing Washington Center
11:43AM 39.6969 -74.5911 226° Southwest 336 387 21,900 1,620 Climbing Washington Center
11:44AM 39.6350 -74.6728 225° Southwest 336 387 23,500 1,500 Climbing Washington Center
11:45AM 39.5647 -74.7489 220° Southwest 330 380 24,900 1,380 Climbing Washington Center
11:46AM 39.4839 -74.8172 213° Southwest 330 380 26,300 1,380 Climbing Washington Center
11:47AM 39.4114 -74.8797 214° Southwest 325 374 27,700 1,320 Climbing Washington Center
11:48AM 39.3344 -74.9394 211° Southwest 325 374 29,100 1,440 Climbing Washington Center
11:49AM 39.2619 -74.9964 211° Southwest 325 374 30,600 1,560 Climbing Washington Center
11:50AM 39.1892 -75.0533 211° Southwest 325 374 32,200 1,380 Climbing Washington Center
11:51AM 39.1250 -75.1128 216° Southwest 315 362 33,500 1,080 Climbing Washington Center
11:52AM 39.0564 -75.1667 211° Southwest 304 350 34,400 660 Climbing Washington Center
11:53AM 38.9856 -75.2231 212° Southwest 298 343 34,900 480 Climbing Washington Center
11:54AM 38.9128 -75.2769 210° Southwest 298 343 35,400 480 Climbing Washington Center
11:55AM 38.8381 -75.3411 214° Southwest 304 350 35,900 300 Climbing Washington Center
11:56AM 38.7589 -75.4053 212° Southwest 323 372 36,000  Climbing Washington Center
11:57AM 38.6778 -75.4719 213° Southwest 338 389 36,000  Level Washington Center
11:58AM 38.5881 -75.5358 209° Southwest 356 410 36,000  Level Washington Center
11:59AM 38.5006 -75.6075 213° Southwest 374 430 36,000  Level Washington Center
12:00PM 38.4108 -75.6792 212° Southwest 379 436 36,000  Level Washington Center
12:01PM 38.3169 -75.7506 211° Southwest 384 442 36,000  Level Washington Center
12:02PM 38.2250 -75.8217 211° Southwest 384 442 36,000  Level Washington Center
12:03PM 38.1353 -75.8928 212° Southwest 384 442 36,000  Level Washington Center
12:04PM 38.0453 -75.9583 210° Southwest 384 442 36,000  Level Washington Center
12:05PM 37.9575 -76.0289 212° Southwest 384 442 36,000  Level Washington Center
12:06PM 37.8675 -76.0969 211° Southwest 384 442 36,000  Level Washington Center
12:07PM 37.7903 -76.1594 213° Southwest 384 442 36,000  Level Washington Center
12:08PM 37.7022 -76.2244 210° Southwest 379 436 36,000  Level Washington Center
12:09PM 37.6164 -76.2917 212° Southwest 379 436 36,000  Level Washington Center
12:10PM 37.5264 -76.3592 211° Southwest 379 436 36,000  Level Washington Center
12:11PM 37.4403 -76.4261 212° Southwest 379 436 36,000  Level Washington Center
12:12PM 37.3522 -76.4933 211° Southwest 379 436 36,000  Level Washington Center
12:13PM 37.2642 -76.5575 210° Southwest 379 436 36,000  Level Washington Center
12:14PM 37.1697 -76.6292 211° Southwest 374 430 36,000  Level Washington Center
12:15PM 37.0836 -76.6958 212° Southwest 369 425 36,000  Level Washington Center
12:16PM 36.9975 -76.7622 212° Southwest 369 425 36,000  Level Washington Center
12:17PM 36.9153 -76.8311 214° Southwest 369 425 36,000  Level Washington Center
12:18PM 36.8353 -76.9075 217° Southwest 369 425 36,000  Level Washington Center
12:19PM 36.7531 -76.9867 218° Southwest 369 425 36,000  Level Washington Center
12:20PM 36.6728 -77.0603 216° Southwest 369 425 36,000  Level Washington Center
12:21PM 36.5906 -77.1389 218° Southwest 369 425 36,000  Level Washington Center
12:22PM 36.5103 -77.2122 216° Southwest 374 430 36,000  Level Washington Center
12:23PM 36.4342 -77.2803 216° Southwest 374 430 36,000  Level Washington Center
12:24PM 36.3539 -77.3561 217° Southwest 374 430 36,000  Level Washington Center
12:25PM 36.2756 -77.4317 218° Southwest 374 430 36,000  Level Washington Center
12:26PM 36.1972 -77.5044 217° Southwest 369 425 36,000  Level Washington Center
12:27PM 36.1147 -77.5769 215° Southwest 369 425 36,000  Level Washington Center
12:28PM 36.0383 -77.6522 219° Southwest 369 425 36,000  Level Washington Center
12:29PM 35.9556 -77.7244 215° Southwest 369 425 36,000  Level Washington Center
12:30PM 35.8731 -77.7889 212° Southwest 364 419 36,000  Level Washington Center
12:31PM 35.7819 -77.8581 212° Southwest 364 419 36,000  Level Washington Center
12:32PM 35.6972 -77.9272 214° Southwest 364 419 36,000  Level Washington Center
12:33PM 35.6147 -77.9886 211° Southwest 359 413 36,000  Level Washington Center
12:34PM 35.5297 -78.0550 212° Southwest 359 413 36,000  Level Washington Center
12:35PM 35.4472 -78.1186 212° Southwest 354 407 36,000  Level Washington Center
12:36PM 35.3622 -78.1847 212° Southwest 354 407 36,000  Level Washington Center
12:37PM 35.2794 -78.2458 211° Southwest 354 407 36,000  Level Washington Center
12:38PM 35.1947 -78.3117 212° Southwest 354 407 36,000  Level Washington Center
12:39PM 35.1139 -78.3775 214° Southwest 354 407 36,000  Level Washington Center
12:40PM 35.0308 -78.4406 212° Southwest 354 407 36,000  Level Washington Center
12:41PM 34.8942 -78.5444 212° Southwest 354 407 36,000  Level Jacksonville Center
12:42PM 34.8089 -78.6094 212° Southwest 354 407 36,000  Level Jacksonville Center
12:43PM 34.7275 -78.6717 212° Southwest 354 407 36,000  Level Jacksonville Center
12:44PM 34.6442 -78.7364 213° Southwest 354 407 36,000  Level Jacksonville Center
12:45PM 34.5608 -78.8008 212° Southwest 359 413 36,000  Level Jacksonville Center
12:46PM 34.4856 -78.8647 215° Southwest 359 413 36,000  Level Jacksonville Center
12:47PM 34.4000 -78.9292 212° Southwest 359 413 36,000  Level Jacksonville Center
12:48PM 34.3144 -78.9908 211° Southwest 359 413 36,000  Level Jacksonville Center
12:49PM 34.2328 -79.0522 212° Southwest 359 413 36,000  Level Jacksonville Center
12:50PM 34.1492 -79.1164 212° Southwest 359 413 36,000  Level Jacksonville Center
12:51PM 34.0633 -79.1803 212° Southwest 359 413 36,000  Level Jacksonville Center
12:52PM 33.9797 -79.2414 211° Southwest 359 413 36,000  Level Jacksonville Center
12:53PM 33.8939 -79.3050 212° Southwest 359 413 36,000  Level Jacksonville Center
12:54PM 33.8100 -79.3658 211° Southwest 359 413 36,000  Level Jacksonville Center
12:55PM 33.7242 -79.4267 211° Southwest 359 413 36,000  Level Jacksonville Center
12:56PM 33.6486 -79.4869 214° Southwest 348 400 36,000  Level Jacksonville Center
12:57PM 33.5625 -79.5478 210° Southwest 348 400 36,000  Level Jacksonville Center
12:58PM 33.4767 -79.6131 212° Southwest 355 409 36,000  Level Jacksonville Center
12:59PM 33.3906 -79.6761 211° Southwest 355 409 36,000  Level Jacksonville Center
01:00PM 33.3067 -79.7361 211° Southwest 355 409 36,000  Level Jacksonville Center
01:01PM 33.2225 -79.7989 212° Southwest 355 409 36,000  Level Jacksonville Center
01:02PM 33.1383 -79.8611 212° Southwest 355 409 36,000 -480 Level Jacksonville Center
01:03PM 33.0522 -79.9186 209° Southwest 355 409 35,100 -1,020 Descending Jacksonville Center
01:04PM 32.9681 -79.9808 212° Southwest 355 409 34,000 -1,080 Descending Jacksonville Center
01:05PM 32.8800 -80.0506 214° Southwest 355 409 33,000 -1,020 Descending Jacksonville Center
01:06PM 32.8108 -80.1367 226° Southwest 360 414 32,000 -1,080 Descending Jacksonville Center
01:07PM 32.7397 -80.2228 226° Southwest 360 414 30,900 -1,020 Descending Jacksonville Center
01:08PM 32.6703 -80.3089 226° Southwest 365 420 30,000 -480 Descending Jacksonville Center
01:09PM 32.6011 -80.3922 225° Southwest 365 420 30,000  Level Jacksonville Center
01:10PM 32.5189 -80.4583 214° Southwest 358 412 30,000  Level Jacksonville Center
01:11PM 32.4281 -80.5100 206° Southwest 358 412 30,000  Level Jacksonville Center
01:12PM 32.3350 -80.5617 205° Southwest 362 417 30,000  Level Jacksonville Center
01:13PM 32.2442 -80.6106 204° Southwest 361 415 30,000 -480 Level Jacksonville Center
01:14PM 32.1531 -80.6619 206° Southwest 361 415 29,100 -1,140 Descending Jacksonville Center
01:15PM 32.0706 -80.7081 205° Southwest 368 423 27,800 -1,500 Descending Jacksonville Center
01:16PM 31.9669 -80.7644 205° Southwest 373 429 26,100 -1,560 Descending Jacksonville Center
01:17PM 31.8697 -80.8156 204° Southwest 379 436 24,700 -1,080 Descending Jacksonville Center
01:18PM 31.7744 -80.8692 206° Southwest 379 436 24,000 -360 Descending Jacksonville Center
01:19PM 31.6897 -80.9125 204° Southwest 379 436 24,000  Level Jacksonville Center
01:20PM 31.5964 -80.9633 205° Southwest 379 436 24,000 -1,020 Level Jacksonville Center
01:21PM 31.4972 -81.0189 206° Southwest 369 425 22,000 -1,980 Descending Jacksonville Center
01:22PM 31.4061 -81.0719 206° Southwest 369 425 20,100 -1,980 Descending Jacksonville Center
01:23PM 31.3147 -81.1175 203° Southwest 364 419 18,100 -1,980 Descending Jacksonville Center
01:24PM 31.2256 -81.1628 203° Southwest 356 410 16,200 -1,800 Descending Jacksonville Center
01:25PM 31.1386 -81.2131 206° Southwest 351 404 14,500 -1,740 Descending Jacksonville Center
01:26PM 31.0825 -81.2406 203° Southwest 346 398 13,400 -1,800 Descending Jacksonville Center
01:26PM 31.0517 -81.2606 209° Southwest 346 398 12,700 -1,740 Descending Jacksonville Center
01:27PM 31.0142 -81.2781 202° Southwest 340 391 12,000 -1,440 Descending Jacksonville Center
01:27PM 30.9664 -81.2936 196° South 340 391 11,300 -1,440 Descending Jacksonville Center
01:28PM 30.8894 -81.3167 194° South 311 358 9,800 -1,680 Descending Jacksonville Center
01:29PM 30.8542 -81.3292 197° South 279 321 8,900 -1,740 Descending Jacksonville Center
01:29PM 30.8211 -81.3564 215° Southwest 287 330 8,100 -1,500 Descending Jacksonville Center
01:30PM 30.7919 -81.3811 216° Southwest 280 322 7,400 -1,620 Descending Jacksonville Center
01:30PM 30.7569 -81.4083 214° Southwest 275 316 6,500 -1,680 Descending Jacksonville Center
01:31PM 30.7281 -81.4353 219° Southwest 277 319 5,700 -1,740 Descending Jacksonville Center
01:31PM 30.6969 -81.4600 214° Southwest 275 316 4,800 -1,800 Descending Jacksonville Center
01:32PM 30.6700 -81.4797 212° Southwest 269 310 4,100 -1,740 Descending Jacksonville Center
01:32PM 30.6347 -81.5117 218° Southwest 280 322 3,100 -1,140 Descending Jacksonville Center
01:33PM 30.6119 -81.5264 209° Southwest 256 295 3,000 -600 Descending Jacksonville Center
01:33PM 30.5831 -81.5533 219° Southwest 266 306 2,500 -1,020 Descending Jacksonville Center
01:34PM 30.5603 -81.5731 217° Southwest 210 242 2,000 -840 Descending Jacksonville Center
01:34PM 30.5375 -81.5903 213° Southwest 233 268 1,700 -720 Descending Jacksonville Center
01:35PM 30.5253 -81.6047 226° Southwest 122 140 1,300 -900 Descending Jacksonville Center
01:35PM 30.5169 -81.6242 244° Southwest 161 185 800 -840 Descending Jacksonville Center
01:36PM 30.5131 -81.6483 259° West 128 147 400 -720 Descending Jacksonville Center